createdAt,value
2018-05-12T00:00:26.335Z,27.50
2018-05-12T00:02:54.614Z,28.40
2018-05-12T00:05:22.174Z,30.27
2018-05-12T00:07:49.679Z,30.60
2018-05-12T00:10:17.255Z,30.27
2018-05-12T00:12:44.743Z,29.97
2018-05-12T00:15:12.237Z,27.37
2018-05-12T00:17:41.511Z,27.23
2018-05-12T00:20:09.749Z,29.47
2018-05-12T00:22:37.805Z,30.00
2018-05-12T00:25:06.202Z,32.00
2018-05-12T00:27:33.829Z,28.33
2018-05-12T00:30:01.414Z,29.07
2018-05-12T00:32:29.696Z,32.50
2018-05-12T00:34:58.821Z,26.80
2018-05-12T00:37:27.095Z,26.20
2018-05-12T00:39:55.358Z,24.90
2018-05-12T00:42:23.622Z,29.97
2018-05-12T00:44:51.132Z,32.77
2018-05-12T00:47:18.632Z,27.40
2018-05-12T00:49:46.376Z,28.10
2018-05-12T00:52:14.264Z,30.83
2018-05-12T00:54:41.786Z,30.37
2018-05-12T00:57:09.966Z,32.47
2018-05-12T00:59:38.264Z,31.00
2018-05-12T01:02:05.795Z,31.90
2018-05-12T01:04:34.065Z,31.63
2018-05-12T01:07:02.310Z,26.27
2018-05-12T01:09:30.739Z,32.60
2018-05-12T01:11:59.000Z,31.40
2018-05-12T01:14:26.583Z,33.47
2018-05-12T01:16:54.872Z,35.90
2018-05-12T01:19:23.198Z,35.03
2018-05-12T01:21:50.742Z,31.50
2018-05-12T01:24:18.882Z,30.60
2018-05-12T01:26:47.290Z,30.07
2018-05-12T01:29:15.466Z,27.20
2018-05-12T01:31:43.035Z,26.40
2018-05-12T01:34:10.677Z,26.93
2018-05-12T01:36:38.957Z,28.63
2018-05-12T01:39:07.235Z,29.67
2018-05-12T01:41:35.801Z,27.60
2018-05-12T01:44:03.480Z,27.93
2018-05-12T01:46:31.140Z,28.53
2018-05-12T01:48:58.654Z,27.47
2018-05-12T01:51:26.157Z,33.53
2018-05-12T01:53:53.696Z,28.47
2018-05-12T01:56:21.830Z,26.70
2018-05-12T01:58:50.129Z,24.50
2018-05-12T02:01:17.664Z,25.43
2018-05-12T02:03:45.917Z,32.37
2018-05-12T02:06:13.516Z,30.77
2018-05-12T02:08:42.396Z,28.10
2018-05-12T02:11:10.796Z,28.10
2018-05-12T02:13:39.694Z,33.70
2018-05-12T02:16:07.962Z,36.50
2018-05-12T02:18:35.466Z,32.87
2018-05-12T02:21:03.010Z,30.17
2018-05-12T02:23:30.572Z,27.90
2018-05-12T02:25:58.957Z,29.53
2018-05-12T02:28:27.249Z,32.23
2018-05-12T02:30:54.782Z,30.00
2018-05-12T02:33:22.324Z,27.60
2018-05-12T02:35:49.951Z,33.13
2018-05-12T02:38:17.467Z,28.80
2018-05-12T02:40:45.045Z,25.67
2018-05-12T02:43:13.316Z,27.87
2018-05-12T02:45:40.857Z,25.30
2018-05-12T02:48:09.062Z,28.03
2018-05-12T02:50:36.712Z,29.47
2018-05-12T02:53:04.198Z,28.20
2018-05-12T02:55:32.502Z,33.23
2018-05-12T02:58:00.771Z,29.60
2018-05-12T03:00:29.358Z,25.30
2018-05-12T03:02:57.720Z,27.97
2018-05-12T03:05:25.426Z,29.80
2018-05-12T03:07:52.968Z,35.73
2018-05-12T03:10:21.240Z,23.67
2018-05-12T03:12:50.297Z,31.57
2018-05-12T03:15:17.786Z,26.80
2018-05-12T03:17:45.398Z,28.20
2018-05-12T03:20:15.466Z,28.53
2018-05-12T03:22:44.563Z,26.00
2018-05-12T03:25:12.151Z,29.80
2018-05-12T03:27:39.678Z,26.30
2018-05-12T03:30:07.220Z,28.73
2018-05-12T03:32:34.735Z,24.53
2018-05-12T03:35:02.634Z,25.43
2018-05-12T03:37:31.041Z,24.63
2018-05-12T03:39:58.645Z,24.73
2018-05-12T03:42:26.466Z,25.03
2018-05-12T03:44:53.958Z,28.50
2018-05-12T03:47:21.581Z,26.00
2018-05-12T03:49:49.331Z,24.90
2018-05-12T03:52:16.860Z,27.97
2018-05-12T03:54:45.568Z,30.13
2018-05-12T03:57:13.152Z,24.67
2018-05-12T03:59:41.466Z,27.27
2018-05-12T04:02:09.020Z,25.10
2018-05-12T04:04:48.352Z,30.10
2018-05-12T04:07:27.762Z,27.60
2018-05-12T04:10:09.044Z,28.00
2018-05-12T04:12:39.265Z,25.13
2018-05-12T04:15:06.752Z,25.53
2018-05-12T04:17:35.028Z,29.03
2018-05-12T04:20:02.559Z,31.23
2018-05-12T04:22:30.180Z,29.37
2018-05-12T04:24:57.684Z,25.90
2018-05-12T04:27:25.183Z,29.13
2018-05-12T04:29:52.700Z,26.30
2018-05-12T04:32:21.180Z,33.37
2018-05-12T04:34:48.680Z,29.63
2018-05-12T04:37:16.949Z,29.17
2018-05-12T04:39:44.476Z,25.77
2018-05-12T04:42:11.991Z,28.83
2018-05-12T04:44:40.285Z,36.40
2018-05-12T04:47:08.695Z,30.43
2018-05-12T04:49:36.247Z,30.23
2018-05-12T04:52:04.590Z,31.10
2018-05-12T04:54:32.136Z,31.80
2018-05-12T04:57:00.258Z,42.10
2018-05-12T04:59:28.554Z,29.63
2018-05-12T05:01:56.084Z,32.30
2018-05-12T05:04:25.701Z,27.63
2018-05-12T05:06:53.973Z,32.83
2018-05-12T05:09:22.133Z,32.93
2018-05-12T05:11:49.631Z,30.93
2018-05-12T05:14:17.898Z,33.30
2018-05-12T05:16:46.867Z,32.97
2018-05-12T05:19:15.214Z,31.97
2018-05-12T05:21:42.714Z,27.97
2018-05-12T05:24:10.214Z,24.80
2018-05-12T05:26:39.434Z,23.03
2018-05-12T05:29:07.010Z,26.60
2018-05-12T05:31:34.522Z,28.30
2018-05-12T05:34:02.058Z,28.97
2018-05-12T05:36:29.882Z,27.50
2018-05-12T05:38:58.298Z,33.20
2018-05-12T05:41:25.786Z,33.03
2018-05-12T05:43:53.614Z,28.33
2018-05-12T05:46:21.438Z,29.77
2018-05-12T05:48:49.094Z,28.93
2018-05-12T05:51:17.646Z,27.00
2018-05-12T05:53:45.252Z,31.57
2018-05-12T05:56:12.798Z,31.23
2018-05-12T05:58:40.333Z,32.83
2018-05-12T06:01:07.894Z,32.10
2018-05-12T06:03:35.440Z,36.07
2018-05-12T06:06:03.716Z,33.53
2018-05-12T06:08:31.984Z,31.97
2018-05-12T06:10:59.511Z,31.80
2018-05-12T06:13:27.012Z,32.97
2018-05-12T06:15:55.270Z,33.53
2018-05-12T06:18:22.780Z,41.97
2018-05-12T06:20:51.368Z,34.63
2018-05-12T06:23:19.143Z,32.90
2018-05-12T06:25:46.767Z,33.00
2018-05-12T06:28:14.358Z,35.73
2018-05-12T06:30:42.646Z,29.70
2018-05-12T06:33:10.936Z,34.07
2018-05-12T06:35:39.887Z,34.17
2018-05-12T06:38:07.388Z,35.40
2018-05-12T06:40:34.988Z,35.83
2018-05-12T06:43:03.408Z,32.40
2018-05-12T06:45:31.803Z,36.90
2018-05-12T06:48:00.082Z,45.63
2018-05-12T06:50:29.610Z,33.30
2018-05-12T06:52:57.601Z,36.10
2018-05-12T06:55:27.887Z,32.50
2018-05-12T06:57:56.946Z,41.53
2018-05-12T07:00:24.460Z,33.10
2018-05-12T07:02:53.043Z,32.67
2018-05-12T07:05:22.443Z,33.67
2018-05-12T07:07:50.726Z,38.33
2018-05-12T07:10:20.332Z,40.83
2018-05-12T07:12:48.634Z,34.63
2018-05-12T07:15:16.938Z,35.33
2018-05-12T07:17:44.504Z,39.97
2018-05-12T07:20:12.035Z,34.97
2018-05-12T07:22:40.331Z,36.23
2018-05-12T07:25:07.848Z,36.67
2018-05-12T07:27:35.384Z,34.27
2018-05-12T07:30:02.920Z,30.73
2018-05-12T07:32:31.400Z,38.27
2018-05-12T07:34:59.702Z,40.23
2018-05-12T07:37:27.673Z,32.13
2018-05-12T07:39:55.288Z,32.57
2018-05-12T07:42:22.874Z,34.63
2018-05-12T07:44:50.406Z,31.30
2018-05-12T07:47:18.191Z,33.80
2018-05-12T07:49:45.900Z,32.47
2018-05-12T07:52:13.556Z,33.47
2018-05-12T07:54:42.958Z,39.80
2018-05-12T07:57:11.220Z,32.77
2018-05-12T07:59:39.536Z,39.00
2018-05-12T08:02:07.056Z,28.60
2018-05-12T08:04:34.711Z,35.77
2018-05-12T08:07:02.278Z,36.70
2018-05-12T08:09:30.579Z,31.43
2018-05-12T08:11:58.126Z,38.13
2018-05-12T08:14:25.958Z,34.17
2018-05-12T08:16:53.472Z,31.30
2018-05-12T08:19:22.538Z,35.17
2018-05-12T08:21:50.109Z,35.73
2018-05-12T08:24:17.610Z,28.90
2018-05-12T08:26:46.046Z,30.40
2018-05-12T08:29:13.830Z,32.23
2018-05-12T08:31:41.426Z,33.13
2018-05-12T08:34:09.856Z,37.27
2018-05-12T08:36:37.504Z,33.57
2018-05-12T08:39:05.204Z,29.80
2018-05-12T08:41:32.720Z,34.00
2018-05-12T08:44:02.358Z,32.57
2018-05-12T08:46:29.869Z,26.40
2018-05-12T08:48:58.240Z,28.43
2018-05-12T08:51:27.726Z,26.00
2018-05-12T08:53:56.930Z,33.20
2018-05-12T08:56:25.114Z,28.50
2018-05-12T08:58:52.814Z,30.87
2018-05-12T09:01:20.434Z,30.30
2018-05-12T09:03:49.300Z,35.00
2018-05-12T09:06:17.586Z,25.23
2018-05-12T09:08:45.947Z,27.50
2018-05-12T09:11:13.536Z,26.93
2018-05-12T09:13:41.134Z,28.63
2018-05-12T09:16:09.552Z,25.70
2018-05-12T09:18:37.986Z,24.47
2018-05-12T09:21:05.581Z,25.40
2018-05-12T09:23:33.077Z,24.20
2018-05-12T09:26:00.770Z,26.10
2018-05-12T09:28:29.140Z,25.97
2018-05-12T09:30:56.730Z,21.00
2018-05-12T09:33:25.000Z,25.37
2018-05-12T09:35:52.518Z,21.80
2018-05-12T09:38:20.692Z,26.60
2018-05-12T09:40:48.356Z,19.67
2018-05-12T09:43:15.954Z,19.20
2018-05-12T09:45:43.495Z,19.83
2018-05-12T09:48:11.649Z,19.80
2018-05-12T09:50:39.606Z,18.60
2018-05-12T09:53:07.976Z,27.83
2018-05-12T09:55:35.516Z,20.63
2018-05-12T09:58:03.832Z,18.27
2018-05-12T10:00:32.293Z,18.50
2018-05-12T10:02:59.830Z,15.80
2018-05-12T10:05:27.431Z,23.77
2018-05-12T10:07:56.622Z,17.30
2018-05-12T10:10:25.028Z,19.63
2018-05-12T10:12:52.597Z,19.50
2018-05-12T10:15:20.234Z,17.67
2018-05-12T10:17:47.806Z,23.10
2018-05-12T10:20:15.434Z,20.40
2018-05-12T10:22:44.246Z,22.80
2018-05-12T10:25:12.544Z,25.67
2018-05-12T10:27:40.826Z,17.50
2018-05-12T10:30:09.120Z,19.60
2018-05-12T10:32:36.648Z,21.60
2018-05-12T10:35:04.147Z,18.43
2018-05-12T10:37:31.722Z,20.73
2018-05-12T10:39:59.273Z,22.43
2018-05-12T10:42:26.770Z,19.93
2018-05-12T10:44:54.264Z,16.70
2018-05-12T10:47:22.584Z,20.40
2018-05-12T10:49:51.820Z,17.17
2018-05-12T10:52:19.422Z,18.97
2018-05-12T10:54:48.410Z,16.47
2018-05-12T10:57:16.987Z,16.13
2018-05-12T10:59:46.019Z,16.47
2018-05-12T11:02:15.214Z,16.50
2018-05-12T11:04:43.475Z,15.43
2018-05-12T11:07:12.651Z,14.97
2018-05-12T11:09:40.234Z,18.40
2018-05-12T11:12:10.304Z,17.13
2018-05-12T11:14:37.958Z,15.00
2018-05-12T11:17:06.292Z,15.80
2018-05-12T11:19:33.999Z,17.30
2018-05-12T11:22:02.365Z,16.37
2018-05-12T11:24:30.951Z,17.50
2018-05-12T11:26:58.530Z,21.47
2018-05-12T11:29:28.043Z,20.13
2018-05-12T11:31:55.662Z,21.17
2018-05-12T11:34:23.366Z,23.17
2018-05-12T11:36:50.984Z,20.80
2018-05-12T11:39:18.535Z,18.87
2018-05-12T11:41:46.097Z,16.03
2018-05-12T11:44:13.780Z,20.23
2018-05-12T11:46:41.495Z,16.60
2018-05-12T11:49:10.941Z,18.30
2018-05-12T11:51:38.442Z,18.07
2018-05-12T11:54:06.580Z,20.53
2018-05-12T11:56:34.160Z,20.47
2018-05-12T11:59:01.715Z,16.90
2018-05-12T12:01:29.471Z,17.63
2018-05-12T12:03:57.196Z,18.10
2018-05-12T12:06:24.819Z,18.30
2018-05-12T12:08:54.704Z,24.03
2018-05-12T12:11:23.064Z,17.67
2018-05-12T12:13:50.901Z,17.80
2018-05-12T12:16:18.499Z,18.83
2018-05-12T12:18:46.054Z,19.20
2018-05-12T12:21:15.368Z,22.07
2018-05-12T12:23:42.884Z,57.60
2018-05-12T12:26:10.424Z,20.97
2018-05-12T12:28:37.942Z,19.83
2018-05-12T12:31:05.453Z,17.70
2018-05-12T12:33:33.860Z,19.33
2018-05-12T12:36:01.455Z,17.07
2018-05-12T12:38:28.978Z,21.60
2018-05-12T12:40:56.489Z,17.57
2018-05-12T12:43:25.440Z,21.10
2018-05-12T12:45:52.948Z,18.50
2018-05-12T12:48:20.746Z,20.20
2018-05-12T12:50:48.992Z,17.30
2018-05-12T12:53:16.541Z,15.27
2018-05-12T12:55:44.176Z,17.80
2018-05-12T12:58:11.761Z,16.13
2018-05-12T13:00:39.279Z,13.67
2018-05-12T13:03:07.612Z,15.27
2018-05-12T13:05:36.996Z,13.70
2018-05-12T13:08:04.634Z,18.47
2018-05-12T13:10:32.977Z,14.27
2018-05-12T13:13:00.641Z,13.43
2018-05-12T13:15:28.786Z,21.53
2018-05-12T13:17:56.344Z,17.23
2018-05-12T13:20:25.234Z,16.80
2018-05-12T13:22:53.585Z,16.80
2018-05-12T13:25:21.121Z,16.70
2018-05-12T13:27:48.740Z,17.40
2018-05-12T13:30:16.684Z,14.50
2018-05-12T13:32:44.396Z,14.40
2018-05-12T13:35:12.773Z,14.77
2018-05-12T13:37:41.780Z,13.97
2018-05-12T13:40:09.335Z,17.60
2018-05-12T13:42:36.882Z,13.77
2018-05-12T13:45:05.199Z,12.23
2018-05-12T13:47:32.772Z,14.00
2018-05-12T13:50:00.274Z,14.67
2018-05-12T13:52:27.792Z,13.27
2018-05-12T13:54:55.299Z,15.10
2018-05-12T13:57:24.104Z,12.57
2018-05-12T13:59:53.966Z,13.37
2018-05-12T14:02:21.592Z,15.07
2018-05-12T14:04:49.915Z,16.20
2018-05-12T14:07:17.513Z,10.90
2018-05-12T14:09:45.860Z,12.50
2018-05-12T14:12:13.420Z,12.17
2018-05-12T14:14:41.763Z,26.63
2018-05-12T14:17:10.364Z,12.30
2018-05-12T14:19:37.909Z,13.37
2018-05-12T14:22:05.401Z,12.30
2018-05-12T14:24:33.012Z,10.10
2018-05-12T14:27:00.699Z,10.70
2018-05-12T14:29:29.434Z,11.80
2018-05-12T14:31:57.498Z,13.43
2018-05-12T14:34:25.986Z,10.80
2018-05-12T14:36:53.590Z,11.27
2018-05-12T14:39:21.106Z,10.00
2018-05-12T14:41:49.385Z,12.90
2018-05-12T14:44:18.544Z,9.37
2018-05-12T14:46:46.518Z,10.40
2018-05-12T14:49:15.691Z,9.63
2018-05-12T14:51:43.192Z,11.63
2018-05-12T14:54:10.679Z,10.20
2018-05-12T14:56:38.951Z,11.30
2018-05-12T14:59:07.230Z,10.53
2018-05-12T15:01:35.355Z,12.90
2018-05-12T15:04:03.015Z,18.10
2018-05-12T15:06:30.791Z,8.37
2018-05-12T15:08:58.795Z,11.13
2018-05-12T15:11:26.312Z,11.03
2018-05-12T15:13:53.821Z,10.23
2018-05-12T15:16:21.351Z,8.90
2018-05-12T15:18:48.919Z,9.00
2018-05-12T15:21:16.475Z,9.03
2018-05-12T15:23:44.422Z,8.87
2018-05-12T15:26:12.728Z,11.50
2018-05-12T15:28:40.308Z,8.53
2018-05-12T15:31:07.969Z,8.70
2018-05-12T15:33:36.630Z,11.03
2018-05-12T15:36:04.880Z,10.13
2018-05-12T15:38:32.443Z,9.60
2018-05-12T15:41:00.099Z,9.83
2018-05-12T15:43:29.061Z,12.40
2018-05-12T15:45:57.847Z,8.27
2018-05-12T15:48:25.481Z,11.33
2018-05-12T15:50:52.989Z,7.60
2018-05-12T15:53:20.519Z,7.77
2018-05-12T15:55:48.322Z,7.93
2018-05-12T15:58:15.831Z,10.33
2018-05-12T16:00:43.417Z,8.53
2018-05-12T16:03:11.751Z,8.87
2018-05-12T16:05:39.577Z,7.63
2018-05-12T16:08:07.846Z,8.23
2018-05-12T16:10:36.715Z,11.23
2018-05-12T16:13:04.236Z,9.40
2018-05-12T16:15:31.803Z,16.30
2018-05-12T16:17:59.308Z,10.53
2018-05-12T16:20:26.822Z,10.00
2018-05-12T16:22:54.548Z,8.77
2018-05-12T16:25:23.516Z,8.33
2018-05-12T16:27:51.233Z,13.10
2018-05-12T16:30:19.510Z,11.20
2018-05-12T16:32:47.344Z,11.03
2018-05-12T16:35:14.888Z,17.77
2018-05-12T16:37:43.622Z,14.70
2018-05-12T16:40:11.147Z,13.20
2018-05-12T16:42:39.065Z,11.93
2018-05-12T16:45:06.928Z,10.27
2018-05-12T16:47:35.803Z,10.23
2018-05-12T16:50:03.437Z,11.70
2018-05-12T16:52:30.944Z,10.73
2018-05-12T16:54:58.535Z,9.93
2018-05-12T16:57:26.308Z,13.23
2018-05-12T16:59:54.602Z,13.80
2018-05-12T17:02:22.125Z,11.03
2018-05-12T17:04:49.618Z,12.77
2018-05-12T17:07:18.678Z,12.10
2018-05-12T17:09:46.197Z,15.60
2018-05-12T17:12:13.692Z,12.40
2018-05-12T17:14:41.242Z,11.80
2018-05-12T17:17:09.237Z,12.10
2018-05-12T17:19:37.601Z,11.87
2018-05-12T17:22:05.087Z,9.90
2018-05-12T17:24:32.637Z,10.13
2018-05-12T17:27:01.055Z,11.20
2018-05-12T17:29:28.610Z,19.07
2018-05-12T17:31:56.438Z,12.70
2018-05-12T17:34:23.935Z,14.60
2018-05-12T17:36:51.458Z,13.80
2018-05-12T17:39:19.533Z,13.37
2018-05-12T17:41:47.059Z,13.47
2018-05-12T17:44:15.456Z,12.03
2018-05-12T17:46:42.896Z,14.53
2018-05-12T17:49:10.414Z,11.73
2018-05-12T17:51:37.948Z,14.70
2018-05-12T17:54:06.590Z,11.77
2018-05-12T17:56:34.271Z,12.67
2018-05-12T17:59:03.187Z,15.00
2018-05-12T18:01:31.015Z,20.17
2018-05-12T18:03:58.791Z,16.63
2018-05-12T18:06:26.563Z,12.70
2018-05-12T18:08:54.958Z,13.53
2018-05-12T18:11:22.608Z,13.27
2018-05-12T18:13:50.911Z,13.90
2018-05-12T18:16:18.467Z,16.80
2018-05-12T18:18:46.050Z,15.80
2018-05-12T18:21:13.665Z,14.93
2018-05-12T18:23:41.864Z,11.80
2018-05-12T18:26:09.627Z,12.60
2018-05-12T18:28:37.637Z,12.90
2018-05-12T18:31:05.187Z,18.07
2018-05-12T18:33:33.016Z,17.47
2018-05-12T18:36:00.554Z,14.53
2018-05-12T18:38:28.929Z,15.90
2018-05-12T18:40:57.527Z,17.53
2018-05-12T18:43:25.799Z,16.60
2018-05-12T18:45:54.616Z,14.20
2018-05-12T18:48:22.376Z,14.27
2018-05-12T18:50:50.755Z,14.43
2018-05-12T18:53:19.011Z,16.93
2018-05-12T18:55:46.687Z,15.57
2018-05-12T18:58:16.108Z,17.50
2018-05-12T19:00:44.627Z,16.77
2018-05-12T19:03:12.151Z,15.67
2018-05-12T19:05:40.630Z,13.30
2018-05-12T19:08:08.980Z,19.07
2018-05-12T19:10:36.854Z,15.47
2018-05-12T19:13:04.362Z,18.80
2018-05-12T19:15:32.648Z,15.97
2018-05-12T19:18:00.740Z,14.30
2018-05-12T19:20:28.298Z,14.00
2018-05-12T19:22:55.860Z,16.67
2018-05-12T19:25:23.456Z,15.00
2018-05-12T19:27:50.954Z,14.93
2018-05-12T19:30:18.922Z,17.10
2018-05-12T19:32:46.453Z,22.23
2018-05-12T19:35:13.989Z,16.50
2018-05-12T19:37:41.566Z,15.43
2018-05-12T19:40:09.112Z,14.73
2018-05-12T19:42:37.490Z,16.53
2018-05-12T19:45:05.771Z,16.43
2018-05-12T19:47:34.048Z,16.67
2018-05-12T19:50:02.321Z,15.97
2018-05-12T19:52:29.924Z,15.60
2018-05-12T19:54:57.590Z,12.87
2018-05-12T19:57:25.109Z,15.30
2018-05-12T19:59:53.398Z,14.10
2018-05-12T20:02:22.698Z,17.30
2018-05-12T20:04:51.007Z,18.37
2018-05-12T20:07:18.570Z,16.17
2018-05-12T20:09:46.138Z,18.10
2018-05-12T20:12:13.679Z,17.77
2018-05-12T20:14:41.961Z,19.40
2018-05-12T20:17:10.265Z,16.17
2018-05-12T20:19:37.767Z,19.27
2018-05-12T20:22:05.274Z,14.00
2018-05-12T20:24:33.575Z,16.53
2018-05-12T20:27:01.089Z,18.40
2018-05-12T20:29:28.589Z,26.47
2018-05-12T20:31:56.871Z,16.87
2018-05-12T20:34:24.431Z,15.80
2018-05-12T20:36:51.965Z,22.13
2018-05-12T20:39:20.257Z,16.87
2018-05-12T20:41:47.779Z,21.47
2018-05-12T20:44:15.338Z,14.93
2018-05-12T20:46:42.920Z,18.97
2018-05-12T20:49:11.761Z,20.07
2018-05-12T20:51:39.966Z,16.43
2018-05-12T20:54:07.480Z,16.97
2018-05-12T20:56:34.971Z,18.17
2018-05-12T20:59:03.240Z,19.60
2018-05-12T21:01:31.548Z,16.43
2018-05-12T21:03:59.034Z,17.10
2018-05-12T21:06:26.551Z,17.43
2018-05-12T21:08:54.836Z,16.10
2018-05-12T21:11:23.087Z,20.97
2018-05-12T21:13:50.906Z,19.80
2018-05-12T21:16:18.468Z,18.33
2018-05-12T21:18:46.024Z,16.53
2018-05-12T21:21:13.607Z,17.30
2018-05-12T21:23:41.138Z,17.47
2018-05-12T21:26:09.433Z,18.37
2018-05-12T21:28:37.032Z,17.03
2018-05-12T21:31:04.564Z,17.17
2018-05-12T21:33:32.144Z,17.10
2018-05-12T21:36:00.008Z,19.13
2018-05-12T21:38:27.522Z,24.00
2018-05-12T21:40:55.148Z,20.00
2018-05-12T21:43:22.944Z,17.00
2018-05-12T21:45:50.466Z,18.93
2018-05-12T21:48:17.991Z,20.23
2018-05-12T21:50:46.295Z,19.03
2018-05-12T21:53:14.575Z,19.40
2018-05-12T21:55:42.842Z,18.83
2018-05-12T21:58:10.352Z,20.63
2018-05-12T22:00:37.854Z,15.63
2018-05-12T22:03:05.453Z,17.13
2018-05-12T22:05:33.730Z,21.43
2018-05-12T22:08:02.904Z,26.77
2018-05-12T22:10:31.836Z,16.60
2018-05-12T22:12:59.356Z,17.20
2018-05-12T22:15:27.613Z,18.43
2018-05-12T22:17:55.112Z,17.50
2018-05-12T22:20:22.633Z,22.87
2018-05-12T22:22:50.148Z,21.30
2018-05-12T22:25:18.440Z,20.07
2018-05-12T22:27:46.752Z,19.23
2018-05-12T22:30:14.300Z,18.27
2018-05-12T22:32:42.172Z,17.73
2018-05-12T22:35:10.143Z,18.73
2018-05-12T22:37:38.454Z,17.80
2018-05-12T22:40:05.957Z,16.97
2018-05-12T22:42:35.004Z,14.90
2018-05-12T22:45:02.563Z,15.53
2018-05-12T22:47:30.074Z,19.87
2018-05-12T22:49:57.582Z,20.47
2018-05-12T22:52:25.071Z,17.90
2018-05-12T22:54:52.620Z,16.17
2018-05-12T22:57:20.280Z,17.53
2018-05-12T22:59:47.835Z,15.23
2018-05-12T23:02:16.135Z,14.03
2018-05-12T23:04:43.674Z,13.27
2018-05-12T23:07:11.216Z,21.30
2018-05-12T23:09:38.759Z,17.10
2018-05-12T23:12:06.276Z,19.13
2018-05-12T23:14:33.855Z,14.33
2018-05-12T23:17:02.139Z,19.50
2018-05-12T23:19:29.693Z,31.77
2018-05-12T23:21:57.191Z,16.67
2018-05-12T23:24:25.648Z,15.93
2018-05-12T23:26:53.146Z,15.87
2018-05-12T23:29:20.862Z,14.77
2018-05-12T23:31:48.377Z,20.03
2018-05-12T23:34:16.619Z,15.80
2018-05-12T23:36:44.170Z,17.30
2018-05-12T23:39:11.726Z,14.10
2018-05-12T23:41:39.232Z,17.70
2018-05-12T23:44:06.780Z,19.53
2018-05-12T23:46:34.304Z,20.70
2018-05-12T23:49:02.604Z,19.00
2018-05-12T23:51:30.259Z,21.20
2018-05-12T23:53:58.583Z,15.77
2018-05-12T23:56:26.353Z,18.13
2018-05-12T23:58:54.090Z,21.20
